createdAt,value
2023-04-29T00:00:04.638Z,13.5626
2023-04-29T00:01:07.834Z,13.5516
2023-04-29T00:02:10.948Z,13.5010
2023-04-29T00:03:14.349Z,13.5769
2023-04-29T00:04:14.563Z,13.6292
2023-04-29T00:05:14.926Z,13.6630
2023-04-29T00:06:15.460Z,13.6162
2023-04-29T00:07:16.517Z,13.6561
2023-04-29T00:08:19.635Z,13.5133
2023-04-29T00:09:22.761Z,13.5942
2023-04-29T00:10:25.857Z,13.6583
2023-04-29T00:11:29.048Z,13.5990
2023-04-29T00:12:32.198Z,13.6507
2023-04-29T00:13:35.257Z,13.6140
2023-04-29T00:14:38.366Z,13.7024
2023-04-29T00:15:41.501Z,13.6244
2023-04-29T00:16:44.647Z,13.6479
2023-04-29T00:17:47.729Z,13.5921
2023-04-29T00:18:50.824Z,13.5210
2023-04-29T00:19:54.286Z,13.5576
2023-04-29T00:20:54.419Z,13.5720
2023-04-29T00:21:56.333Z,13.6665
2023-04-29T00:22:56.249Z,13.5852
2023-04-29T00:23:59.340Z,13.4777
2023-04-29T00:25:02.451Z,13.5815
2023-04-29T00:26:05.584Z,13.5668
2023-04-29T00:27:08.756Z,13.6220
2023-04-29T00:28:11.873Z,13.5716
2023-04-29T00:29:14.973Z,13.6008
2023-04-29T00:30:18.059Z,13.4167
2023-04-29T00:31:21.218Z,13.4080
2023-04-29T00:32:24.299Z,13.5179
2023-04-29T00:33:27.461Z,13.5520
2023-04-29T00:34:27.363Z,13.4968
2023-04-29T00:35:30.473Z,13.5220
2023-04-29T00:36:33.594Z,13.4600
2023-04-29T00:37:36.686Z,13.4253
2023-04-29T00:38:39.943Z,13.3928
2023-04-29T00:39:39.832Z,13.4262
2023-04-29T00:40:42.954Z,13.3959
2023-04-29T00:41:46.223Z,13.4111
2023-04-29T00:42:49.293Z,13.4570
2023-04-29T00:43:52.427Z,13.3752
2023-04-29T00:44:55.539Z,13.4771
2023-04-29T00:45:58.659Z,13.4171
2023-04-29T00:47:01.762Z,13.5645
2023-04-29T00:48:05.265Z,13.5131
2023-04-29T00:49:05.743Z,13.4088
2023-04-29T00:50:05.628Z,13.4590
2023-04-29T00:51:08.719Z,13.5266
2023-04-29T00:52:11.809Z,13.4643
2023-04-29T00:53:14.995Z,13.5277
2023-04-29T00:54:18.119Z,13.5158
2023-04-29T00:55:21.217Z,13.3384
2023-04-29T00:56:24.382Z,13.4743
2023-04-29T00:57:27.441Z,13.4611
2023-04-29T00:58:30.692Z,13.5784
2023-04-29T00:59:30.580Z,13.7970
2023-04-29T01:00:33.705Z,13.7536
2023-04-29T01:01:37.171Z,13.5357
2023-04-29T01:02:37.210Z,13.5495
2023-04-29T01:03:37.335Z,13.6171
2023-04-29T01:04:37.374Z,13.3459
2023-04-29T01:05:40.526Z,13.4910
2023-04-29T01:06:43.626Z,13.3849
2023-04-29T01:07:46.749Z,13.4295
2023-04-29T01:08:49.853Z,13.3888
2023-04-29T01:09:53.263Z,13.4074
2023-04-29T01:10:53.317Z,13.4001
2023-04-29T01:11:56.392Z,13.3568
2023-04-29T01:12:59.518Z,13.3239
2023-04-29T01:14:02.619Z,13.3820
2023-04-29T01:15:05.725Z,13.3357
2023-04-29T01:16:09.081Z,13.3388
2023-04-29T01:17:08.988Z,13.2818
2023-04-29T01:18:12.104Z,13.3408
2023-04-29T01:19:15.183Z,13.3232
2023-04-29T01:20:18.264Z,13.2778
2023-04-29T01:21:21.382Z,13.3149
2023-04-29T01:22:24.525Z,13.3672
2023-04-29T01:23:27.634Z,13.3824
2023-04-29T01:24:30.772Z,13.2913
2023-04-29T01:25:33.897Z,13.3464
2023-04-29T01:26:37.010Z,13.2846
2023-04-29T01:27:40.168Z,13.2625
2023-04-29T01:28:43.378Z,13.2326
2023-04-29T01:29:46.455Z,13.3076
2023-04-29T01:30:49.557Z,13.4088
2023-04-29T01:31:52.794Z,13.3142
2023-04-29T01:32:52.783Z,13.3766
2023-04-29T01:33:55.976Z,13.4120
2023-04-29T01:34:59.150Z,13.3591
2023-04-29T01:35:59.086Z,13.3921
2023-04-29T01:37:02.183Z,13.4375
2023-04-29T01:38:05.349Z,13.4850
2023-04-29T01:39:08.590Z,13.4806
2023-04-29T01:40:08.508Z,13.3695
2023-04-29T01:41:11.623Z,13.5219
2023-04-29T01:42:14.735Z,13.5929
2023-04-29T01:43:17.874Z,13.4857
2023-04-29T01:44:17.881Z,13.5309
2023-04-29T01:45:20.997Z,13.4918
2023-04-29T01:46:24.155Z,13.4848
2023-04-29T01:47:27.331Z,13.4250
2023-04-29T01:48:30.467Z,13.3540
2023-04-29T01:50:48.303Z,13.2881
2023-04-29T01:50:48.303Z,13.4368
2023-04-29T01:51:48.214Z,13.2185
2023-04-29T01:52:51.379Z,13.3413
2023-04-29T01:53:51.407Z,13.1962
2023-04-29T01:54:51.337Z,13.3559
2023-04-29T01:55:54.576Z,13.4602
2023-04-29T01:56:54.477Z,13.2657
2023-04-29T01:57:57.625Z,13.4519
2023-04-29T01:59:00.807Z,13.4302
2023-04-29T02:00:00.743Z,13.2708
2023-04-29T02:01:03.976Z,13.4703
2023-04-29T02:02:03.955Z,13.5024
2023-04-29T02:03:03.993Z,13.4630
2023-04-29T02:04:04.098Z,13.5011
2023-04-29T02:05:07.200Z,13.4348
2023-04-29T02:06:10.337Z,13.4327
2023-04-29T02:07:13.508Z,13.6081
2023-04-29T02:08:16.654Z,13.6538
2023-04-29T02:09:19.904Z,13.6923
2023-04-29T02:10:19.829Z,13.5107
2023-04-29T02:11:23.162Z,13.4367
2023-04-29T02:12:23.079Z,13.4867
2023-04-29T02:13:23.469Z,13.3611
2023-04-29T02:14:23.473Z,13.3824
2023-04-29T02:15:23.509Z,13.2865
2023-04-29T02:16:26.682Z,13.2057
2023-04-29T02:17:29.771Z,13.1422
2023-04-29T02:18:33.013Z,13.2151
2023-04-29T02:19:33.074Z,13.2004
2023-04-29T02:20:33.076Z,13.1801
2023-04-29T02:21:33.060Z,13.2201
2023-04-29T02:22:36.278Z,13.2520
2023-04-29T02:23:36.245Z,13.2306
2023-04-29T02:24:39.470Z,13.2102
2023-04-29T02:25:39.505Z,13.1391
2023-04-29T02:26:39.445Z,13.1494
2023-04-29T02:27:42.687Z,13.1015
2023-04-29T02:28:45.803Z,13.1134
2023-04-29T02:29:49.014Z,13.2208
2023-04-29T02:30:48.972Z,13.2134
2023-04-29T02:31:52.143Z,13.1823
2023-04-29T02:32:55.352Z,13.2255
2023-04-29T02:33:55.277Z,13.3019
2023-04-29T02:34:58.423Z,13.2780
2023-04-29T02:36:01.613Z,13.2319
2023-04-29T02:37:01.559Z,13.3124
2023-04-29T02:38:04.756Z,13.5035
2023-04-29T02:39:04.688Z,13.6248
2023-04-29T02:40:07.838Z,13.3584
2023-04-29T02:41:11.021Z,13.3752
2023-04-29T02:42:10.976Z,13.4601
2023-04-29T02:43:14.178Z,13.7325
2023-04-29T02:44:14.117Z,13.9565
2023-04-29T02:45:17.267Z,13.7569
2023-04-29T02:46:20.449Z,13.8726
2023-04-29T02:47:23.582Z,13.9370
2023-04-29T02:48:26.782Z,13.8334
2023-04-29T02:49:26.809Z,13.9263
2023-04-29T02:50:26.768Z,13.7606
2023-04-29T02:51:29.918Z,13.9600
2023-04-29T02:52:33.034Z,14.1268
2023-04-29T02:53:36.252Z,13.6526
2023-04-29T02:54:36.217Z,13.6497
2023-04-29T02:55:39.396Z,13.5312
2023-04-29T02:56:42.557Z,13.5758
2023-04-29T02:57:45.778Z,13.5092
2023-04-29T02:58:45.747Z,13.5631
2023-04-29T02:59:48.928Z,13.5688
2023-04-29T03:00:52.131Z,13.8321
2023-04-29T03:01:53.329Z,13.6546
2023-04-29T03:02:53.388Z,13.8745
2023-04-29T03:03:53.633Z,13.8340
2023-04-29T03:04:54.566Z,13.6492
2023-04-29T03:05:57.811Z,13.6866
2023-04-29T03:06:57.723Z,13.7181
2023-04-29T03:08:00.895Z,13.7779
2023-04-29T03:09:04.040Z,13.6171
2023-04-29T03:10:07.232Z,13.5565
2023-04-29T03:11:07.197Z,13.4430
2023-04-29T03:12:10.415Z,13.5182
2023-04-29T03:13:10.424Z,13.4723
2023-04-29T03:14:10.365Z,13.5228
2023-04-29T03:15:11.332Z,13.5117
2023-04-29T03:16:14.513Z,13.4007
2023-04-29T03:17:17.697Z,13.3901
2023-04-29T03:18:17.734Z,13.4713
2023-04-29T03:19:17.705Z,13.5333
2023-04-29T03:20:20.881Z,13.3784
2023-04-29T03:21:20.893Z,13.4371
2023-04-29T03:22:24.073Z,13.5541
2023-04-29T03:23:27.235Z,13.4810
2023-04-29T03:24:27.285Z,13.5453
2023-04-29T03:25:30.481Z,13.4743
2023-04-29T03:26:30.559Z,13.4671
2023-04-29T03:27:30.465Z,13.4553
2023-04-29T03:28:34.428Z,13.6149
2023-04-29T03:29:34.335Z,13.6172
2023-04-29T03:30:37.477Z,13.5257
2023-04-29T03:31:40.694Z,13.7262
2023-04-29T03:32:40.716Z,13.5439
2023-04-29T03:33:40.675Z,13.4114
2023-04-29T03:34:44.011Z,13.5533
2023-04-29T03:35:44.019Z,13.4805
2023-04-29T03:36:43.997Z,13.4280
2023-04-29T03:37:43.966Z,13.5529
2023-04-29T03:38:47.162Z,13.4918
2023-04-29T03:39:47.204Z,13.6170
2023-04-29T03:40:47.107Z,13.6171
2023-04-29T03:42:11.357Z,13.6143
2023-04-29T03:42:52.119Z,13.8675
2023-04-29T03:43:52.133Z,14.2651
2023-04-29T03:44:52.091Z,13.8874
2023-04-29T03:45:55.311Z,13.9797
2023-04-29T03:46:55.343Z,14.0585
2023-04-29T03:47:55.365Z,13.8079
2023-04-29T03:48:58.513Z,13.5378
2023-04-29T03:50:01.737Z,13.5100
2023-04-29T03:51:02.687Z,13.5135
2023-04-29T03:52:05.846Z,13.6373
2023-04-29T03:53:05.788Z,13.6411
2023-04-29T03:54:08.952Z,13.5075
2023-04-29T03:55:12.124Z,13.5969
2023-04-29T03:56:16.944Z,13.6954
2023-04-29T03:57:17.372Z,13.4458
2023-04-29T03:58:17.443Z,13.4387
2023-04-29T03:59:17.734Z,13.5354
2023-04-29T04:00:17.674Z,13.5108
2023-04-29T04:01:17.668Z,13.4060
2023-04-29T04:02:20.935Z,13.3145
2023-04-29T04:03:21.200Z,13.4895
2023-04-29T04:04:21.382Z,13.5244
2023-04-29T04:05:21.416Z,13.6695
2023-04-29T04:06:24.562Z,13.6462
2023-04-29T04:07:24.597Z,13.8132
2023-04-29T04:08:27.829Z,13.6323
2023-04-29T04:09:27.766Z,13.7294
2023-04-29T04:10:30.931Z,13.6392
2023-04-29T04:11:34.063Z,13.3910
2023-04-29T04:12:37.269Z,13.5144
2023-04-29T04:13:37.309Z,13.5262
2023-04-29T04:14:37.202Z,13.5342
2023-04-29T04:15:40.339Z,13.3798
2023-04-29T04:16:43.582Z,13.3423
2023-04-29T04:17:44.561Z,13.4756
2023-04-29T04:18:47.723Z,13.3225
2023-04-29T04:19:51.046Z,13.2743
2023-04-29T04:20:52.161Z,13.2951
2023-04-29T04:21:55.282Z,13.1911
2023-04-29T04:22:58.379Z,13.3558
2023-04-29T04:24:01.631Z,13.3239
2023-04-29T04:25:01.862Z,13.3938
2023-04-29T04:26:01.870Z,13.3903
2023-04-29T04:27:01.995Z,13.6453
2023-04-29T04:28:01.899Z,13.4218
2023-04-29T04:29:05.024Z,13.3452
2023-04-29T04:30:08.325Z,13.3131
2023-04-29T04:31:08.367Z,13.5928
2023-04-29T04:32:08.303Z,13.3651
2023-04-29T04:33:08.289Z,13.3112
2023-04-29T04:34:12.137Z,13.2609
2023-04-29T04:35:12.126Z,13.2639
2023-04-29T04:36:15.300Z,13.4350
2023-04-29T04:37:15.361Z,13.5375
2023-04-29T04:38:15.298Z,13.5789
2023-04-29T04:39:18.449Z,13.4164
2023-04-29T04:40:21.595Z,13.5734
2023-04-29T04:41:25.077Z,13.3599
2023-04-29T04:42:25.077Z,13.4723
2023-04-29T04:43:28.236Z,13.3618
2023-04-29T04:44:31.462Z,13.3463
2023-04-29T04:45:31.366Z,13.3130
2023-04-29T04:46:34.554Z,13.3007
2023-04-29T04:47:37.744Z,13.5557
2023-04-29T04:48:40.854Z,13.4241
2023-04-29T04:49:44.029Z,13.2070
2023-04-29T04:50:47.184Z,13.3196
2023-04-29T04:51:50.328Z,13.6501
2023-04-29T04:52:53.521Z,13.2844
2023-04-29T04:53:56.616Z,13.2244
2023-04-29T04:54:59.757Z,13.1568
2023-04-29T04:56:02.897Z,13.4862
2023-04-29T04:57:06.077Z,13.2095
2023-04-29T04:58:06.039Z,13.2559
2023-04-29T04:59:09.454Z,13.2207
2023-04-29T05:00:09.358Z,13.0343
2023-04-29T05:01:12.550Z,13.0335
2023-04-29T05:02:15.746Z,13.0306
2023-04-29T05:03:19.028Z,12.9571
2023-04-29T05:04:19.956Z,13.2174
2023-04-29T05:05:20.042Z,13.1897
2023-04-29T05:06:19.961Z,13.0933
2023-04-29T05:07:23.727Z,13.2020
2023-04-29T05:08:23.668Z,13.0499
2023-04-29T05:09:26.772Z,13.0529
2023-04-29T05:10:29.923Z,13.3078
2023-04-29T05:11:33.104Z,13.1301
2023-04-29T05:12:33.065Z,13.3041
2023-04-29T05:13:36.233Z,13.2394
2023-04-29T05:14:36.196Z,13.2884
2023-04-29T05:15:39.336Z,13.3864
2023-04-29T05:16:42.834Z,13.4330
2023-04-29T05:17:42.861Z,13.7464
2023-04-29T05:18:45.979Z,13.8738
2023-04-29T05:19:49.305Z,13.8952
2023-04-29T05:20:49.240Z,13.6259
2023-04-29T05:21:52.433Z,13.6026
2023-04-29T05:22:52.379Z,13.5048
2023-04-29T05:23:55.502Z,13.6410
2023-04-29T05:24:58.651Z,14.0814
2023-04-29T05:26:01.861Z,13.7340
2023-04-29T05:27:01.805Z,13.8020
2023-04-29T05:28:05.020Z,13.9803
2023-04-29T05:29:08.257Z,13.7665
2023-04-29T05:30:08.230Z,13.8487
2023-04-29T05:31:11.569Z,14.0666
2023-04-29T05:32:11.544Z,13.9143
2023-04-29T05:33:16.053Z,13.9299
2023-04-29T05:34:15.999Z,14.0207
2023-04-29T05:35:16.388Z,13.9801
2023-04-29T05:36:16.289Z,14.2476
2023-04-29T05:37:19.482Z,14.1423
2023-04-29T05:38:19.483Z,14.0217
2023-04-29T05:39:22.699Z,13.9069
2023-04-29T05:40:22.678Z,13.8243
2023-04-29T05:41:25.832Z,13.8736
2023-04-29T05:42:25.839Z,13.9226
2023-04-29T05:43:29.058Z,14.1324
2023-04-29T05:44:29.003Z,14.1287
2023-04-29T05:45:29.815Z,14.2553
2023-04-29T05:46:30.287Z,14.3966
2023-04-29T05:47:30.528Z,14.3274
2023-04-29T05:48:30.576Z,14.1340
2023-04-29T05:49:33.755Z,14.1586
2023-04-29T05:50:36.946Z,13.9974
2023-04-29T05:51:37.429Z,14.1188
2023-04-29T05:52:37.360Z,13.9901
2023-04-29T05:53:40.570Z,14.0310
2023-04-29T05:54:40.570Z,13.8937
2023-04-29T05:55:40.557Z,14.1144
2023-04-29T05:56:43.739Z,14.3015
2023-04-29T05:57:43.869Z,14.2491
2023-04-29T05:58:44.264Z,14.0927
2023-04-29T05:59:44.189Z,14.0068
2023-04-29T06:00:44.162Z,14.0938
2023-04-29T06:01:47.596Z,14.1273
2023-04-29T06:02:58.280Z,14.0892
2023-04-29T06:03:50.639Z,14.2478
2023-04-29T06:04:51.081Z,14.2599
2023-04-29T06:05:51.226Z,14.0408
2023-04-29T06:06:53.473Z,14.2398
2023-04-29T06:07:53.370Z,14.2068
2023-04-29T06:08:56.527Z,14.0887
2023-04-29T06:09:59.710Z,14.2193
2023-04-29T06:11:02.898Z,14.0838
2023-04-29T06:12:06.052Z,14.1554
2023-04-29T06:13:09.266Z,14.1707
2023-04-29T06:14:12.410Z,14.0836
2023-04-29T06:15:15.550Z,14.1621
2023-04-29T06:16:18.838Z,13.9846
2023-04-29T06:17:18.775Z,14.0893
2023-04-29T06:18:21.907Z,13.9543
2023-04-29T06:19:25.188Z,14.1580
2023-04-29T06:20:25.086Z,14.0800
2023-04-29T06:21:28.330Z,14.2004
2023-04-29T06:22:28.285Z,13.9578
2023-04-29T06:23:31.443Z,13.9450
2023-04-29T06:24:34.652Z,13.9967
2023-04-29T06:25:37.741Z,13.9805
2023-04-29T06:26:40.944Z,13.9434
2023-04-29T06:27:44.061Z,13.7586
2023-04-29T06:28:47.226Z,13.8418
2023-04-29T06:29:50.381Z,13.8266
2023-04-29T06:30:53.498Z,13.8063
2023-04-29T06:31:56.665Z,13.7874
2023-04-29T06:32:59.825Z,13.7964
2023-04-29T06:34:02.979Z,13.8899
2023-04-29T06:35:06.116Z,13.8397
2023-04-29T06:36:09.240Z,13.8535
2023-04-29T06:37:12.382Z,13.7966
2023-04-29T06:38:15.592Z,13.8065
2023-04-29T06:39:15.634Z,13.7964
2023-04-29T06:40:15.622Z,13.8319
2023-04-29T06:41:18.748Z,13.8072
2023-04-29T06:42:18.738Z,13.8636
2023-04-29T06:43:21.874Z,13.8778
2023-04-29T06:44:25.230Z,14.0455
2023-04-29T06:45:25.368Z,13.9645
2023-04-29T06:46:25.345Z,14.0094
2023-04-29T06:47:28.583Z,14.0110
2023-04-29T06:48:28.494Z,14.1316
2023-04-29T06:49:31.683Z,14.0441
2023-04-29T06:50:31.711Z,14.0216
2023-04-29T06:51:34.985Z,14.0591
2023-04-29T06:52:34.996Z,14.1586
2023-04-29T06:53:38.141Z,14.1183
2023-04-29T06:54:38.099Z,14.3222
2023-04-29T06:55:41.252Z,14.3110
2023-04-29T06:56:44.402Z,14.3665
2023-04-29T06:57:47.553Z,14.4706
2023-04-29T06:58:50.701Z,14.5991
2023-04-29T06:59:54.013Z,14.6901
2023-04-29T07:00:54.267Z,14.7490
2023-04-29T07:01:54.310Z,14.6439
2023-04-29T07:02:54.362Z,14.6507
2023-04-29T07:03:54.408Z,14.6850
2023-04-29T07:04:54.525Z,14.8191
2023-04-29T07:05:54.665Z,14.8474
2023-04-29T07:06:54.625Z,15.0352
2023-04-29T07:07:57.794Z,15.1727
2023-04-29T07:09:00.974Z,15.2331
2023-04-29T07:10:04.154Z,15.1611
2023-04-29T07:11:07.307Z,15.0848
2023-04-29T07:12:10.541Z,15.3250
2023-04-29T07:13:13.663Z,15.3753
2023-04-29T07:14:16.844Z,15.4673
2023-04-29T07:15:20.002Z,15.5683
2023-04-29T07:16:23.176Z,15.5271
2023-04-29T07:17:26.414Z,15.4425
2023-04-29T07:18:26.324Z,14.7905
2023-04-29T07:19:29.500Z,15.1905
2023-04-29T07:20:29.442Z,15.4541
2023-04-29T07:21:32.643Z,15.3790
2023-04-29T07:22:32.589Z,15.0841
2023-04-29T07:23:35.769Z,15.4154
2023-04-29T07:24:39.236Z,15.4533
2023-04-29T07:25:39.172Z,15.2533
2023-04-29T07:26:42.368Z,15.2058
2023-04-29T07:27:42.356Z,15.1556
2023-04-29T07:28:45.553Z,15.1959
2023-04-29T07:29:45.515Z,15.2123
2023-04-29T07:30:48.741Z,14.9627
2023-04-29T07:31:48.719Z,15.0026
2023-04-29T07:32:48.706Z,14.9698
2023-04-29T07:33:51.856Z,14.9553
2023-04-29T07:34:55.328Z,14.8948
2023-04-29T07:35:55.393Z,14.7306
2023-04-29T07:36:58.592Z,14.9188
2023-04-29T07:38:01.735Z,14.9756
2023-04-29T07:39:04.972Z,14.9039
2023-04-29T07:40:04.911Z,14.9812
2023-04-29T07:41:08.081Z,15.3106
2023-04-29T07:42:08.094Z,15.2557
2023-04-29T07:43:09.437Z,15.1742
2023-04-29T07:44:10.462Z,15.2116
2023-04-29T07:45:10.431Z,15.5699
2023-04-29T07:46:13.632Z,15.3479
2023-04-29T07:47:16.805Z,15.5081
2023-04-29T07:48:16.808Z,15.5434
2023-04-29T07:49:19.999Z,15.4764
2023-04-29T07:50:19.975Z,15.4792
2023-04-29T07:51:23.181Z,15.4574
2023-04-29T07:52:26.313Z,15.5376
2023-04-29T07:53:29.593Z,15.3584
2023-04-29T07:54:29.464Z,15.5167
2023-04-29T07:55:32.688Z,15.5519
2023-04-29T07:56:35.845Z,15.6772
2023-04-29T07:57:38.972Z,15.4297
2023-04-29T07:58:42.140Z,15.6807
2023-04-29T07:59:45.360Z,15.7587
2023-04-29T08:00:48.515Z,15.8190
2023-04-29T08:01:51.718Z,16.0405
2023-04-29T08:02:51.794Z,15.9545
2023-04-29T08:03:51.921Z,16.1295
2023-04-29T08:04:52.481Z,15.7840
2023-04-29T08:05:52.663Z,15.9013
2023-04-29T08:06:55.768Z,15.9909
2023-04-29T08:07:58.940Z,15.9210
2023-04-29T08:09:03.230Z,16.0942
2023-04-29T08:10:03.313Z,16.0380
2023-04-29T08:11:06.756Z,15.9000
2023-04-29T08:12:07.616Z,15.7451
2023-04-29T08:13:08.630Z,15.5102
2023-04-29T08:14:11.817Z,15.5602
2023-04-29T08:15:14.971Z,15.6113
2023-04-29T08:16:18.233Z,15.8020
2023-04-29T08:17:18.219Z,15.6413
2023-04-29T08:18:18.196Z,15.3528
2023-04-29T08:19:21.415Z,15.8279
2023-04-29T08:20:21.458Z,15.8368
2023-04-29T08:21:21.395Z,16.0201
2023-04-29T08:22:24.561Z,15.8860
2023-04-29T08:23:24.571Z,15.9857
2023-04-29T08:24:27.825Z,16.2786
2023-04-29T08:25:27.787Z,16.3013
2023-04-29T08:26:30.959Z,16.5802
2023-04-29T08:27:34.141Z,16.4244
2023-04-29T08:28:37.296Z,16.3481
2023-04-29T08:29:37.330Z,16.3540
2023-04-29T08:30:40.458Z,16.4330
2023-04-29T08:31:43.624Z,16.5130
2023-04-29T08:32:46.816Z,16.4741
2023-04-29T08:33:49.925Z,16.4627
2023-04-29T08:34:53.372Z,16.2493
2023-04-29T08:35:53.374Z,15.9585
2023-04-29T08:36:56.536Z,16.3021
2023-04-29T08:37:59.664Z,16.0796
2023-04-29T08:39:02.817Z,16.0458
2023-04-29T08:40:05.997Z,16.2278
2023-04-29T08:41:09.094Z,16.0169
2023-04-29T08:42:12.243Z,16.2791
2023-04-29T08:43:15.357Z,16.2048
2023-04-29T08:44:18.487Z,16.1847
2023-04-29T08:45:21.728Z,16.2089
2023-04-29T08:46:24.802Z,16.0522
2023-04-29T08:47:28.003Z,16.3168
2023-04-29T08:48:31.183Z,16.1362
2023-04-29T08:49:31.138Z,16.1834
2023-04-29T08:50:34.272Z,16.1465
2023-04-29T08:51:37.445Z,16.3039
2023-04-29T08:52:40.557Z,16.2767
2023-04-29T08:53:43.686Z,16.2096
2023-04-29T08:54:46.837Z,16.3040
2023-04-29T08:55:49.964Z,16.2770
2023-04-29T08:56:53.108Z,16.3977
2023-04-29T08:57:56.244Z,16.4958
2023-04-29T08:58:59.345Z,16.5241
2023-04-29T09:00:02.595Z,16.4343
2023-04-29T09:01:05.717Z,16.4360
2023-04-29T09:02:08.834Z,16.4714
2023-04-29T09:03:12.039Z,16.2055
2023-04-29T09:04:12.064Z,16.3909
2023-04-29T09:05:12.979Z,16.4622
2023-04-29T09:06:16.100Z,16.4576
2023-04-29T09:07:19.244Z,16.6518
2023-04-29T09:08:22.350Z,16.4510
2023-04-29T09:09:25.474Z,16.4618
2023-04-29T09:10:28.602Z,16.6173
2023-04-29T09:11:31.813Z,16.5954
2023-04-29T09:12:34.910Z,16.7915
2023-04-29T09:13:38.036Z,16.7838
2023-04-29T09:14:41.155Z,16.7681
2023-04-29T09:15:44.273Z,16.5106
2023-04-29T09:16:47.625Z,16.9182
2023-04-29T09:17:47.724Z,16.9965
2023-04-29T09:18:47.634Z,17.0586
2023-04-29T09:19:50.745Z,17.0868
2023-04-29T09:20:53.853Z,17.0108
2023-04-29T09:21:57.022Z,17.0736
2023-04-29T09:23:00.202Z,16.8676
2023-04-29T09:24:03.329Z,16.7821
2023-04-29T09:25:06.461Z,16.8161
2023-04-29T09:26:09.621Z,16.7657
2023-04-29T09:27:09.586Z,16.8836
2023-04-29T09:28:12.745Z,16.9527
2023-04-29T09:29:15.887Z,16.9058
2023-04-29T09:30:19.013Z,16.9245
2023-04-29T09:31:22.161Z,16.8642
2023-04-29T09:32:25.319Z,16.9090
2023-04-29T09:33:28.421Z,17.0192
2023-04-29T09:34:31.521Z,17.0074
2023-04-29T09:35:34.776Z,16.9702
2023-04-29T09:36:37.869Z,17.0920
2023-04-29T09:37:41.035Z,17.1426
2023-04-29T09:38:44.736Z,17.2227
2023-04-29T09:39:44.629Z,17.2641
2023-04-29T09:40:59.029Z,17.3350
2023-04-29T09:41:50.362Z,17.3884
2023-04-29T09:42:53.495Z,17.5931
2023-04-29T09:43:56.668Z,17.6496
2023-04-29T09:44:59.805Z,17.6068
2023-04-29T09:46:02.962Z,17.5605
2023-04-29T09:47:06.101Z,17.5786
2023-04-29T09:48:09.219Z,17.5742
2023-04-29T09:49:12.349Z,17.7874
2023-04-29T09:50:15.490Z,17.9170
2023-04-29T09:51:18.616Z,17.9564
2023-04-29T09:52:21.786Z,17.8857
2023-04-29T09:53:24.957Z,18.2220
2023-04-29T09:54:28.087Z,18.2978
2023-04-29T09:55:31.211Z,18.5795
2023-04-29T09:56:34.332Z,18.3526
2023-04-29T09:57:37.492Z,18.3132
2023-04-29T09:58:40.638Z,18.3139
2023-04-29T09:59:43.966Z,18.0491
2023-04-29T10:00:43.863Z,18.0458
2023-04-29T10:01:47.071Z,17.6532
2023-04-29T10:02:50.302Z,17.7413
2023-04-29T10:03:50.375Z,17.9392
2023-04-29T10:04:50.491Z,18.0525
2023-04-29T10:05:50.404Z,18.2472
2023-04-29T10:06:53.533Z,18.3635
2023-04-29T10:07:56.695Z,18.3773
2023-04-29T10:08:59.828Z,18.4108
2023-04-29T10:10:02.977Z,18.3156
2023-04-29T10:11:06.327Z,18.5153
2023-04-29T10:12:06.218Z,18.4733
2023-04-29T10:13:09.330Z,18.2969
2023-04-29T10:14:12.510Z,18.5160
2023-04-29T10:15:15.632Z,18.5656
2023-04-29T10:16:18.867Z,18.4495
2023-04-29T10:17:18.798Z,17.9354
2023-04-29T10:18:21.915Z,18.5176
2023-04-29T10:19:25.094Z,18.4996
2023-04-29T10:20:28.225Z,18.4571
2023-04-29T10:21:31.723Z,18.3936
2023-04-29T10:22:31.790Z,18.5198
2023-04-29T10:23:34.914Z,18.4141
2023-04-29T10:24:38.124Z,18.4296
2023-04-29T10:25:38.033Z,18.6854
2023-04-29T10:26:41.165Z,18.6222
2023-04-29T10:27:44.348Z,18.6398
2023-04-29T10:28:47.492Z,18.7853
2023-04-29T10:29:50.628Z,18.6251
2023-04-29T10:30:53.754Z,18.6414
2023-04-29T10:31:56.889Z,18.9138
2023-04-29T10:33:01.763Z,18.8545
2023-04-29T10:34:01.770Z,19.0311
2023-04-29T10:35:04.919Z,19.0831
2023-04-29T10:36:08.014Z,19.2952
2023-04-29T10:37:11.147Z,19.4141
2023-04-29T10:38:14.275Z,19.5750
2023-04-29T10:39:17.419Z,19.3964
2023-04-29T10:40:20.549Z,19.2425
2023-04-29T10:41:23.656Z,19.4667
2023-04-29T10:42:26.809Z,19.5992
2023-04-29T10:43:29.944Z,19.3164
2023-04-29T10:44:29.895Z,18.9887
2023-04-29T10:45:33.035Z,19.1728
2023-04-29T10:46:36.211Z,18.8737
2023-04-29T10:47:39.307Z,18.8352
2023-04-29T10:48:42.431Z,18.8698
2023-04-29T10:49:45.590Z,19.1857
2023-04-29T10:50:48.757Z,19.0880
2023-04-29T10:51:51.872Z,18.3852
2023-04-29T10:52:54.999Z,17.8683
2023-04-29T10:53:58.214Z,17.6685
2023-04-29T10:54:58.156Z,17.3932
2023-04-29T10:56:01.328Z,17.3209
2023-04-29T10:57:01.303Z,17.0119
2023-04-29T10:58:04.473Z,17.1789
2023-04-29T10:59:07.636Z,16.9435
2023-04-29T11:00:10.792Z,16.6174
2023-04-29T11:01:13.942Z,16.4453
2023-04-29T11:02:17.078Z,16.6968
2023-04-29T11:03:20.693Z,16.3941
2023-04-29T11:04:20.732Z,16.6523
2023-04-29T11:05:20.649Z,16.8077
2023-04-29T11:06:23.826Z,16.7018
2023-04-29T11:07:26.979Z,16.8947
2023-04-29T11:08:30.144Z,16.9873
2023-04-29T11:09:33.337Z,17.1744
2023-04-29T11:10:36.502Z,17.2650
2023-04-29T11:11:39.665Z,17.3480
2023-04-29T11:12:42.799Z,17.3731
2023-04-29T11:13:45.957Z,17.1682
2023-04-29T11:14:49.120Z,17.3907
2023-04-29T11:15:49.117Z,17.4612
2023-04-29T11:16:52.347Z,17.5582
2023-04-29T11:17:52.359Z,17.7409
2023-04-29T11:18:55.497Z,17.7502
2023-04-29T11:19:58.691Z,17.8988
2023-04-29T11:21:01.843Z,17.8840
2023-04-29T11:22:05.011Z,17.8365
2023-04-29T11:23:08.172Z,17.8772
2023-04-29T11:24:11.356Z,18.1902
2023-04-29T11:25:14.556Z,18.1745
2023-04-29T11:26:14.516Z,18.2224
2023-04-29T11:27:14.550Z,18.2797
2023-04-29T11:28:17.686Z,18.4547
2023-04-29T11:29:20.890Z,18.5701
2023-04-29T11:30:20.869Z,18.6334
2023-04-29T11:31:24.782Z,18.7697
2023-04-29T11:32:25.771Z,18.9936
2023-04-29T11:33:25.800Z,18.7875
2023-04-29T11:34:28.954Z,19.0176
2023-04-29T11:35:32.143Z,18.8625
2023-04-29T11:36:32.101Z,19.4180
2023-04-29T11:37:35.240Z,19.6047
2023-04-29T11:38:38.400Z,19.4392
2023-04-29T11:39:41.619Z,19.4839
2023-04-29T11:40:44.751Z,19.6529
2023-04-29T11:41:47.936Z,19.9188
2023-04-29T11:42:51.090Z,19.8028
2023-04-29T11:43:54.234Z,20.1139
2023-04-29T11:44:57.408Z,20.2529
2023-04-29T11:46:00.629Z,20.2505
2023-04-29T11:47:03.762Z,20.3051
2023-04-29T11:48:06.949Z,20.3588
2023-04-29T11:49:10.048Z,20.3214
2023-04-29T11:50:13.223Z,20.5200
2023-04-29T11:51:16.354Z,19.9780
2023-04-29T11:52:19.526Z,19.8855
2023-04-29T11:53:22.682Z,19.3780
2023-04-29T11:54:25.944Z,19.9193
2023-04-29T11:55:25.904Z,18.7256
2023-04-29T11:56:29.060Z,19.7857
2023-04-29T11:57:32.244Z,20.3268
2023-04-29T11:58:35.404Z,20.4173
2023-04-29T11:59:38.545Z,20.4025
2023-04-29T12:00:41.830Z,19.4869
2023-04-29T12:01:41.787Z,19.9619
2023-04-29T12:02:45.043Z,19.8172
2023-04-29T12:03:45.399Z,19.8931
2023-04-29T12:04:45.614Z,19.7713
2023-04-29T12:05:45.743Z,19.7156
2023-04-29T12:06:45.669Z,19.7794
2023-04-29T12:07:48.808Z,18.8784
2023-04-29T12:08:51.954Z,19.4082
2023-04-29T12:09:55.114Z,19.7974
2023-04-29T12:10:55.188Z,19.8571
2023-04-29T12:11:55.094Z,19.8933
2023-04-29T12:12:58.279Z,20.0715
2023-04-29T12:14:01.453Z,20.2037
2023-04-29T12:15:04.644Z,20.4994
2023-04-29T12:16:07.778Z,20.4212
2023-04-29T12:17:10.902Z,20.1269
2023-04-29T12:18:14.107Z,20.3886
2023-04-29T12:19:17.285Z,20.2689
2023-04-29T12:20:20.461Z,20.2340
2023-04-29T12:21:23.663Z,20.3591
2023-04-29T12:22:23.622Z,20.3593
2023-04-29T12:23:26.796Z,19.9853
2023-04-29T12:24:29.984Z,19.8897
2023-04-29T12:25:33.159Z,19.7361
2023-04-29T12:26:36.321Z,19.5760
2023-04-29T12:27:39.463Z,19.4922
2023-04-29T12:28:42.590Z,18.9684
2023-04-29T12:29:45.715Z,18.5975
2023-04-29T12:30:48.993Z,18.3493
2023-04-29T12:31:48.994Z,18.0037